createdAt,value
2023-03-31T00:01:17.577Z,11.41
2023-03-31T00:03:48.511Z,11.40
2023-03-31T00:06:20.834Z,11.39
2023-03-31T00:08:54.092Z,11.36
2023-03-31T00:11:25.751Z,11.40
2023-03-31T00:13:59.156Z,11.42
2023-03-31T00:16:29.603Z,11.39
2023-03-31T00:19:02.201Z,11.42
2023-03-31T00:21:34.381Z,11.41
2023-03-31T00:24:08.231Z,11.44
2023-03-31T00:26:39.810Z,11.46
2023-03-31T00:29:15.481Z,11.43
2023-03-31T00:31:46.354Z,11.48
2023-03-31T00:34:16.898Z,11.47
2023-03-31T00:36:48.958Z,11.44
2023-03-31T00:39:21.747Z,11.43
2023-03-31T00:41:52.342Z,11.42
2023-03-31T00:44:27.574Z,11.41
2023-03-31T00:47:01.648Z,11.41
2023-03-31T00:49:36.432Z,11.43
2023-03-31T00:52:10.336Z,11.39
2023-03-31T00:54:41.894Z,11.38
2023-03-31T00:57:14.225Z,11.37
2023-03-31T00:59:53.042Z,11.28
2023-03-31T01:02:25.907Z,11.24
2023-03-31T01:05:02.577Z,11.17
2023-03-31T01:07:40.862Z,11.16
2023-03-31T01:10:13.613Z,11.13
2023-03-31T01:12:49.215Z,11.08
2023-03-31T01:15:23.824Z,11.11
2023-03-31T01:17:57.772Z,11.15
2023-03-31T01:20:40.599Z,11.14
2023-03-31T01:23:54.691Z,11.21
2023-03-31T01:26:52.994Z,11.31
2023-03-31T01:30:01.836Z,11.27
2023-03-31T01:33:06.946Z,11.26
2023-03-31T01:36:16.418Z,11.25
2023-03-31T01:39:33.376Z,11.29
2023-03-31T01:42:11.520Z,11.29
2023-03-31T01:44:50.353Z,11.27
2023-03-31T01:47:27.427Z,11.27
2023-03-31T01:50:06.108Z,11.30
2023-03-31T01:52:44.342Z,11.27
2023-03-31T01:55:24.670Z,11.30
2023-03-31T01:58:07.951Z,11.31
2023-03-31T02:00:44.238Z,11.32
2023-03-31T02:03:22.190Z,11.30
2023-03-31T02:05:57.164Z,11.27
2023-03-31T02:08:33.001Z,11.28
2023-03-31T02:11:04.100Z,11.31
2023-03-31T02:13:39.785Z,11.29
2023-03-31T02:16:15.683Z,11.33
2023-03-31T02:18:48.458Z,11.36
2023-03-31T02:21:20.231Z,11.37
2023-03-31T02:23:52.690Z,11.37
2023-03-31T02:26:29.006Z,11.40
2023-03-31T02:29:03.224Z,11.35
2023-03-31T02:31:45.610Z,11.32
2023-03-31T02:34:16.184Z,11.30
2023-03-31T02:36:48.293Z,11.20
2023-03-31T02:39:23.116Z,11.17
2023-03-31T02:41:55.628Z,11.19
2023-03-31T02:44:28.731Z,11.17
2023-03-31T02:46:59.148Z,11.10
2023-03-31T02:49:29.580Z,11.11
2023-03-31T02:52:48.390Z,11.04
2023-03-31T02:55:49.806Z,10.99
2023-03-31T02:58:51.239Z,10.97
2023-03-31T03:01:43.905Z,10.96
2023-03-31T03:04:37.044Z,10.94
2023-03-31T03:07:16.903Z,10.94
2023-03-31T03:09:59.124Z,10.90
2023-03-31T03:12:36.730Z,10.96
2023-03-31T03:15:16.105Z,10.93
2023-03-31T03:17:51.382Z,10.92
2023-03-31T03:20:24.233Z,10.98
2023-03-31T03:22:54.643Z,10.93
2023-03-31T03:25:25.865Z,10.87
2023-03-31T03:27:56.501Z,10.89
2023-03-31T03:30:26.899Z,10.85
2023-03-31T03:32:59.993Z,10.90
2023-03-31T03:35:30.503Z,10.85
2023-03-31T03:38:01.036Z,10.77
2023-03-31T03:40:31.585Z,10.74
2023-03-31T03:43:01.969Z,10.72
2023-03-31T03:45:32.432Z,10.67
2023-03-31T03:48:05.494Z,10.66
2023-03-31T03:50:40.245Z,10.63
2023-03-31T03:53:11.172Z,10.62
2023-03-31T03:55:41.665Z,10.60
2023-03-31T03:58:12.158Z,10.58
2023-03-31T04:00:42.576Z,10.56
2023-03-31T04:03:16.707Z,10.58
2023-03-31T04:05:50.033Z,10.52
2023-03-31T04:08:20.906Z,10.55
2023-03-31T04:10:52.718Z,10.50
2023-03-31T04:13:23.521Z,10.50
2023-03-31T04:15:54.046Z,10.50
2023-03-31T04:18:27.065Z,10.42
2023-03-31T04:21:04.232Z,10.31
2023-03-31T04:23:35.380Z,10.35
2023-03-31T04:26:09.062Z,10.30
2023-03-31T04:28:43.014Z,10.28
2023-03-31T04:31:16.012Z,10.24
2023-03-31T04:33:50.858Z,10.23
2023-03-31T04:36:21.970Z,10.25
2023-03-31T04:38:55.128Z,10.18
2023-03-31T04:41:27.711Z,10.12
2023-03-31T04:43:58.532Z,10.14
2023-03-31T04:46:29.094Z,10.14
2023-03-31T04:49:03.056Z,10.15
2023-03-31T04:51:33.538Z,10.14
2023-03-31T04:54:03.924Z,10.24
2023-03-31T04:56:34.419Z,10.27
2023-03-31T04:59:05.390Z,10.26
2023-03-31T05:01:36.707Z,10.32
2023-03-31T05:04:09.976Z,10.27
2023-03-31T05:06:40.651Z,10.22
2023-03-31T05:09:11.357Z,10.20
2023-03-31T05:11:41.756Z,10.18
2023-03-31T05:14:12.673Z,10.19
2023-03-31T05:16:43.474Z,10.21
2023-03-31T05:19:18.445Z,10.23
2023-03-31T05:21:49.139Z,10.22
2023-03-31T05:24:19.556Z,10.28
2023-03-31T05:26:53.082Z,10.28
2023-03-31T05:29:23.678Z,10.28
2023-03-31T05:31:54.638Z,10.20
2023-03-31T05:34:27.840Z,10.14
2023-03-31T05:36:58.750Z,10.00
2023-03-31T05:39:33.246Z,9.96
2023-03-31T05:42:05.792Z,9.91
2023-03-31T05:44:36.310Z,9.86
2023-03-31T05:47:06.938Z,9.81
2023-03-31T05:49:39.966Z,9.79
2023-03-31T05:52:12.965Z,9.76
2023-03-31T05:54:44.560Z,9.74
2023-03-31T05:57:15.140Z,9.74
2023-03-31T05:59:45.522Z,9.76
2023-03-31T06:02:18.484Z,9.81
2023-03-31T06:04:52.262Z,9.90
2023-03-31T06:07:23.309Z,9.95
2023-03-31T06:09:53.777Z,9.99
2023-03-31T06:12:24.227Z,10.03
2023-03-31T06:14:54.671Z,10.00
2023-03-31T06:17:25.114Z,9.95
2023-03-31T06:19:58.361Z,9.91
2023-03-31T06:22:28.746Z,9.94
2023-03-31T06:24:59.105Z,9.96
2023-03-31T06:27:29.821Z,9.99
2023-03-31T06:30:00.242Z,9.99
2023-03-31T06:32:30.696Z,10.01
2023-03-31T06:35:03.744Z,9.98
2023-03-31T06:37:34.255Z,9.91
2023-03-31T06:40:04.790Z,9.83
2023-03-31T06:42:35.153Z,9.77
2023-03-31T06:45:05.598Z,9.74
2023-03-31T06:47:38.228Z,9.70
2023-03-31T06:50:13.663Z,9.70
2023-03-31T06:52:44.175Z,9.67
2023-03-31T06:55:16.232Z,9.61
2023-03-31T06:57:46.633Z,9.62
2023-03-31T07:00:21.452Z,9.46
2023-03-31T07:02:53.408Z,9.39
2023-03-31T07:05:27.665Z,9.35
2023-03-31T07:07:59.115Z,9.33
2023-03-31T07:10:32.633Z,9.30
2023-03-31T07:13:05.506Z,9.28
2023-03-31T07:15:36.314Z,9.27
2023-03-31T07:18:07.343Z,9.29
2023-03-31T07:20:40.337Z,9.29
2023-03-31T07:23:11.159Z,9.29
2023-03-31T07:25:41.524Z,9.32
2023-03-31T07:28:11.977Z,9.35
2023-03-31T07:30:43.795Z,9.38
2023-03-31T07:33:14.490Z,9.41
2023-03-31T07:35:54.036Z,9.45
2023-03-31T07:38:34.307Z,9.50
2023-03-31T07:41:09.035Z,9.52
2023-03-31T07:43:40.774Z,9.53
2023-03-31T07:46:17.733Z,9.61
2023-03-31T07:48:49.538Z,9.63
2023-03-31T07:51:28.613Z,9.67
2023-03-31T07:53:59.041Z,9.74
2023-03-31T07:56:29.552Z,9.75
2023-03-31T07:58:59.993Z,9.80
2023-03-31T08:01:30.486Z,9.83
2023-03-31T08:04:01.367Z,9.82
2023-03-31T08:06:34.642Z,9.84
2023-03-31T08:09:07.395Z,9.87
2023-03-31T08:11:37.977Z,9.95
2023-03-31T08:14:08.419Z,10.05
2023-03-31T08:16:38.940Z,10.12
2023-03-31T08:19:09.754Z,10.18
2023-03-31T08:21:42.908Z,10.25
2023-03-31T08:24:13.323Z,10.34
2023-03-31T08:26:44.501Z,10.39
2023-03-31T08:29:15.108Z,10.49
2023-03-31T08:31:45.619Z,10.55
2023-03-31T08:34:16.116Z,10.58
2023-03-31T08:36:49.073Z,10.65
2023-03-31T08:39:19.684Z,10.68
2023-03-31T08:41:58.697Z,10.81
2023-03-31T08:44:37.430Z,10.87
2023-03-31T08:47:13.079Z,10.99
2023-03-31T08:49:48.665Z,11.19
2023-03-31T08:52:29.275Z,11.23
2023-03-31T08:55:02.788Z,11.33
2023-03-31T08:57:42.964Z,11.43
2023-03-31T09:00:19.738Z,11.57
2023-03-31T09:02:58.372Z,11.66
2023-03-31T09:06:01.203Z,11.85
2023-03-31T09:08:44.966Z,11.99
2023-03-31T09:11:23.189Z,12.09
2023-03-31T09:14:13.103Z,12.25
2023-03-31T09:16:50.669Z,12.37
2023-03-31T09:19:37.214Z,12.49
2023-03-31T09:22:14.654Z,12.52
2023-03-31T09:24:55.508Z,12.59
2023-03-31T09:27:31.572Z,12.71
2023-03-31T09:30:07.586Z,12.81
2023-03-31T09:32:41.434Z,12.87
2023-03-31T09:35:21.889Z,12.96
2023-03-31T09:37:53.324Z,12.93
2023-03-31T09:40:31.232Z,12.92
2023-03-31T09:43:04.735Z,12.88
2023-03-31T09:45:36.663Z,12.80
2023-03-31T09:48:12.567Z,12.75
2023-03-31T09:50:49.785Z,12.75
2023-03-31T09:53:27.127Z,12.77
2023-03-31T09:56:06.555Z,12.88
2023-03-31T09:58:44.824Z,12.99
2023-03-31T10:01:18.077Z,13.13
2023-03-31T10:03:54.415Z,13.30
2023-03-31T10:06:27.224Z,13.44
2023-03-31T10:08:59.814Z,13.54
2023-03-31T10:11:33.377Z,13.55
2023-03-31T10:14:06.992Z,13.57
2023-03-31T10:16:48.042Z,13.46
2023-03-31T10:19:25.866Z,13.54
2023-03-31T10:22:01.454Z,13.54
2023-03-31T10:24:41.638Z,13.55
2023-03-31T10:27:24.819Z,13.55
2023-03-31T10:29:56.664Z,13.60
2023-03-31T10:32:30.279Z,13.64
2023-03-31T10:35:06.997Z,13.79
2023-03-31T10:37:40.231Z,13.83
2023-03-31T10:40:20.457Z,13.89
2023-03-31T10:43:04.744Z,13.86
2023-03-31T10:45:41.733Z,14.07
2023-03-31T10:48:23.423Z,14.12
2023-03-31T10:50:53.916Z,14.14
2023-03-31T10:53:24.887Z,14.19
2023-03-31T10:56:08.178Z,14.28
2023-03-31T10:59:05.910Z,14.20
2023-03-31T11:01:53.674Z,14.17
2023-03-31T11:04:46.318Z,14.26
2023-03-31T11:07:31.657Z,14.22
2023-03-31T11:10:21.544Z,14.22
2023-03-31T11:12:59.952Z,14.13
2023-03-31T11:15:42.744Z,14.06
2023-03-31T11:18:41.897Z,13.97
2023-03-31T11:21:24.597Z,13.75
2023-03-31T11:24:06.684Z,13.39
2023-03-31T11:26:47.812Z,11.62
2023-03-31T11:29:33.698Z,10.01
2023-03-31T11:32:31.736Z,9.41
2023-03-31T11:35:25.242Z,8.95
2023-03-31T11:38:23.380Z,8.77
2023-03-31T11:41:03.103Z,8.81
2023-03-31T11:43:39.306Z,8.76
2023-03-31T11:46:16.403Z,8.83
2023-03-31T11:48:57.535Z,8.86
2023-03-31T11:51:32.646Z,8.88
2023-03-31T11:54:12.362Z,9.02
2023-03-31T11:56:44.582Z,9.03
2023-03-31T11:59:19.177Z,9.07
2023-03-31T12:01:57.601Z,9.17
2023-03-31T12:04:38.679Z,9.17
2023-03-31T12:07:25.487Z,9.21
2023-03-31T12:10:06.158Z,9.35
2023-03-31T12:12:44.365Z,9.55
2023-03-31T12:15:23.097Z,9.89
2023-03-31T12:18:03.120Z,10.31
2023-03-31T12:20:40.863Z,10.71
2023-03-31T12:23:18.716Z,11.08
2023-03-31T12:25:57.126Z,11.13
2023-03-31T12:28:29.790Z,11.18
2023-03-31T12:31:03.404Z,11.21
2023-03-31T12:33:36.315Z,11.21
2023-03-31T12:36:28.623Z,11.44
2023-03-31T12:39:25.822Z,11.94
2023-03-31T12:42:18.321Z,12.16
2023-03-31T12:45:00.130Z,12.16
2023-03-31T12:47:47.575Z,12.30
2023-03-31T12:50:39.393Z,12.57
2023-03-31T12:53:26.939Z,12.86
2023-03-31T12:56:00.698Z,12.73
2023-03-31T12:58:55.052Z,13.00
2023-03-31T13:01:26.094Z,13.14
2023-03-31T13:04:20.524Z,13.33
2023-03-31T13:07:01.424Z,13.50
2023-03-31T13:09:55.268Z,13.69
2023-03-31T13:12:28.473Z,14.06
2023-03-31T13:15:01.950Z,14.11
2023-03-31T13:17:35.984Z,13.81
2023-03-31T13:20:36.849Z,13.10
2023-03-31T13:23:25.865Z,12.65
2023-03-31T13:26:00.313Z,12.06
2023-03-31T13:28:42.726Z,11.61
2023-03-31T13:31:14.797Z,11.32
2023-03-31T13:33:49.679Z,11.15
2023-03-31T13:36:46.236Z,10.94
2023-03-31T13:40:05.324Z,11.01
2023-03-31T13:43:11.477Z,11.12
2023-03-31T13:46:26.860Z,11.04
2023-03-31T13:49:11.471Z,10.90
2023-03-31T13:51:53.521Z,10.81
2023-03-31T13:54:56.093Z,10.57
2023-03-31T13:58:25.554Z,10.44
2023-03-31T14:01:47.067Z,10.21
2023-03-31T14:04:33.507Z,10.02
2023-03-31T14:07:11.465Z,9.95
2023-03-31T14:09:49.989Z,9.82
2023-03-31T14:12:36.021Z,9.76
2023-03-31T14:15:20.623Z,9.86
2023-03-31T14:17:51.688Z,10.09
2023-03-31T14:20:39.179Z,10.67
2023-03-31T14:23:26.710Z,11.30
2023-03-31T14:26:06.369Z,11.67
2023-03-31T14:29:11.331Z,12.20
2023-03-31T14:31:52.567Z,12.22
2023-03-31T14:34:58.921Z,12.41
2023-03-31T14:37:31.055Z,12.45
2023-03-31T14:40:05.425Z,12.49
2023-03-31T14:42:41.781Z,12.64
2023-03-31T14:45:25.091Z,12.77
2023-03-31T14:48:12.212Z,12.90
2023-03-31T14:50:47.707Z,12.90
2023-03-31T14:53:19.201Z,13.03
2023-03-31T14:55:58.637Z,13.12
2023-03-31T14:58:35.133Z,13.08
2023-03-31T15:01:09.671Z,13.25
2023-03-31T15:03:44.661Z,13.06
2023-03-31T15:06:16.198Z,13.28
2023-03-31T15:08:46.958Z,13.29
2023-03-31T15:11:21.110Z,13.37
2023-03-31T15:14:04.489Z,13.19
2023-03-31T15:16:42.730Z,12.95
2023-03-31T15:19:23.037Z,13.10
2023-03-31T15:22:02.123Z,13.32
2023-03-31T15:24:33.189Z,13.57
2023-03-31T15:27:08.826Z,13.63
2023-03-31T15:29:45.094Z,13.67
2023-03-31T15:32:19.304Z,13.92
2023-03-31T15:34:54.832Z,14.00
2023-03-31T15:37:28.784Z,13.95
2023-03-31T15:40:01.269Z,14.09
2023-03-31T15:42:32.219Z,14.19
2023-03-31T15:45:40.179Z,13.98
2023-03-31T15:48:21.500Z,13.50
2023-03-31T15:50:54.961Z,13.17
2023-03-31T15:53:32.655Z,13.21
2023-03-31T15:56:03.691Z,13.25
2023-03-31T15:59:01.020Z,13.26
2023-03-31T16:01:34.640Z,13.18
2023-03-31T16:04:10.087Z,13.02
2023-03-31T16:06:52.986Z,12.73
2023-03-31T16:09:28.020Z,12.57
2023-03-31T16:12:01.734Z,12.54
2023-03-31T16:14:36.641Z,12.48
2023-03-31T16:17:10.274Z,12.36
2023-03-31T16:19:46.371Z,12.38
2023-03-31T16:22:22.896Z,12.27
2023-03-31T16:24:53.850Z,12.33
2023-03-31T16:27:25.837Z,12.42
2023-03-31T16:30:11.459Z,12.31
2023-03-31T16:32:42.078Z,12.18
2023-03-31T16:35:12.716Z,12.08
2023-03-31T16:37:47.310Z,12.01
2023-03-31T16:40:17.984Z,11.83
2023-03-31T16:42:48.581Z,11.60
2023-03-31T16:45:21.547Z,11.64
2023-03-31T16:47:54.716Z,11.52
2023-03-31T16:50:25.443Z,11.50
2023-03-31T16:52:58.955Z,11.47
2023-03-31T16:55:31.616Z,11.44
2023-03-31T16:58:03.333Z,11.48
2023-03-31T17:00:35.544Z,11.36
2023-03-31T17:03:07.341Z,11.42
2023-03-31T17:05:42.287Z,11.32
2023-03-31T17:08:17.110Z,11.30
2023-03-31T17:10:55.540Z,11.12
2023-03-31T17:13:26.236Z,11.20
2023-03-31T17:16:04.704Z,11.22
2023-03-31T17:18:46.709Z,11.07
2023-03-31T17:21:19.524Z,11.05
2023-03-31T17:23:52.756Z,11.00
2023-03-31T17:26:23.782Z,10.94
2023-03-31T17:28:54.311Z,10.85
2023-03-31T17:31:25.819Z,10.93
2023-03-31T17:33:56.422Z,10.93
2023-03-31T17:36:26.762Z,10.80
2023-03-31T17:39:00.330Z,10.69
2023-03-31T17:41:32.348Z,10.65
2023-03-31T17:44:02.906Z,10.69
2023-03-31T17:46:33.642Z,10.66
2023-03-31T17:49:04.149Z,10.57
2023-03-31T17:51:36.522Z,10.56
2023-03-31T17:54:10.057Z,10.47
2023-03-31T17:56:41.674Z,10.41
2023-03-31T17:59:13.009Z,10.27
2023-03-31T18:01:43.506Z,10.18
2023-03-31T18:04:14.846Z,10.02
2023-03-31T18:06:48.084Z,9.86
2023-03-31T18:09:21.129Z,9.64
2023-03-31T18:11:51.916Z,9.35
2023-03-31T18:14:22.616Z,9.09
2023-03-31T18:16:53.469Z,8.92
2023-03-31T18:19:24.318Z,8.75
2023-03-31T18:21:54.958Z,8.66
2023-03-31T18:24:28.209Z,8.60
2023-03-31T18:26:58.840Z,8.61
2023-03-31T18:29:29.452Z,8.65
2023-03-31T18:32:00.013Z,8.64
2023-03-31T18:34:33.315Z,8.64
2023-03-31T18:37:05.684Z,8.63
2023-03-31T18:39:38.940Z,8.64
2023-03-31T18:42:09.937Z,8.69
2023-03-31T18:44:40.633Z,8.69
2023-03-31T18:47:11.064Z,8.74
2023-03-31T18:49:41.646Z,8.75
2023-03-31T18:52:12.115Z,8.79
2023-03-31T18:54:45.152Z,8.82
2023-03-31T18:57:15.874Z,8.84
2023-03-31T18:59:46.291Z,8.80
2023-03-31T19:02:18.410Z,8.81
2023-03-31T19:04:50.014Z,8.81
2023-03-31T19:07:20.912Z,8.77
2023-03-31T19:09:54.216Z,8.81
2023-03-31T19:12:25.121Z,8.84
2023-03-31T19:14:55.584Z,8.86
2023-03-31T19:17:26.463Z,8.85
2023-03-31T19:19:56.892Z,8.88
2023-03-31T19:22:29.946Z,8.89
2023-03-31T19:25:03.737Z,8.90
2023-03-31T19:27:34.342Z,8.92
2023-03-31T19:30:04.881Z,8.89
2023-03-31T19:32:35.577Z,8.87
2023-03-31T19:35:06.068Z,8.86
2023-03-31T19:37:37.712Z,8.87
2023-03-31T19:40:12.754Z,8.86
2023-03-31T19:42:44.653Z,8.90
2023-03-31T19:45:15.550Z,8.91
2023-03-31T19:47:46.213Z,8.92
2023-03-31T19:50:16.686Z,8.96
2023-03-31T19:52:49.381Z,8.97
2023-03-31T19:55:23.122Z,8.95
2023-03-31T19:57:53.569Z,8.93
2023-03-31T20:00:24.902Z,8.98
2023-03-31T20:02:55.638Z,8.97
2023-03-31T20:05:26.247Z,8.99
2023-03-31T20:07:56.750Z,8.99
2023-03-31T20:10:29.817Z,8.99
2023-03-31T20:13:00.444Z,8.99
2023-03-31T20:15:31.854Z,8.97
2023-03-31T20:18:02.734Z,8.97
2023-03-31T20:20:33.243Z,8.99
2023-03-31T20:23:04.042Z,8.96
2023-03-31T20:25:39.483Z,8.98
2023-03-31T20:28:09.924Z,9.01
2023-03-31T20:30:41.692Z,9.04
2023-03-31T20:33:12.137Z,9.04
2023-03-31T20:35:42.517Z,9.06
2023-03-31T20:38:12.948Z,9.10
2023-03-31T20:40:49.438Z,9.05
2023-03-31T20:43:20.053Z,9.12
2023-03-31T20:45:58.037Z,9.10
2023-03-31T20:48:28.436Z,9.09
2023-03-31T20:50:59.008Z,9.04
2023-03-31T20:53:29.425Z,9.02
2023-03-31T20:56:02.484Z,9.00
2023-03-31T20:58:33.252Z,9.00
2023-03-31T21:01:03.749Z,8.97
2023-03-31T21:03:34.247Z,8.99
2023-03-31T21:06:06.437Z,8.97
2023-03-31T21:08:42.508Z,8.96
2023-03-31T21:11:17.106Z,8.95
2023-03-31T21:13:48.956Z,8.90
2023-03-31T21:16:20.534Z,8.90
2023-03-31T21:18:51.741Z,8.90
2023-03-31T21:21:24.715Z,8.88
2023-03-31T21:23:56.537Z,8.88
2023-03-31T21:26:29.660Z,8.86
2023-03-31T21:29:00.188Z,8.84
2023-03-31T21:31:31.163Z,8.84
2023-03-31T21:34:02.849Z,8.79
2023-03-31T21:36:33.391Z,8.82
2023-03-31T21:39:04.557Z,8.80
2023-03-31T21:41:37.855Z,8.80
2023-03-31T21:44:09.181Z,8.77
2023-03-31T21:46:39.966Z,8.76
2023-03-31T21:49:11.096Z,8.76
2023-03-31T21:51:41.625Z,8.74
2023-03-31T21:54:13.383Z,8.78
2023-03-31T21:56:46.417Z,8.73
2023-03-31T21:59:16.839Z,8.73
2023-03-31T22:01:47.268Z,8.73
2023-03-31T22:04:17.735Z,8.69
2023-03-31T22:06:48.195Z,8.64
2023-03-31T22:09:18.574Z,8.61
2023-03-31T22:11:51.726Z,8.58
2023-03-31T22:14:22.142Z,8.54
2023-03-31T22:16:52.622Z,8.46
2023-03-31T22:19:25.810Z,8.50
2023-03-31T22:21:56.423Z,8.52
2023-03-31T22:24:26.869Z,8.47
2023-03-31T22:26:59.950Z,8.50
2023-03-31T22:29:30.667Z,8.48
2023-03-31T22:32:01.179Z,8.48
2023-03-31T22:34:31.619Z,8.45
2023-03-31T22:37:02.530Z,8.42
2023-03-31T22:39:33.027Z,8.42
2023-03-31T22:42:06.670Z,8.40
2023-03-31T22:44:40.331Z,8.38
2023-03-31T22:47:10.930Z,8.37
2023-03-31T22:49:41.460Z,8.33
2023-03-31T22:52:11.929Z,8.29
2023-03-31T22:54:42.855Z,8.27
2023-03-31T22:57:17.127Z,8.28
2023-03-31T22:59:47.697Z,8.31
2023-03-31T23:02:18.208Z,8.29
2023-03-31T23:04:48.705Z,8.31
2023-03-31T23:07:21.987Z,8.30
2023-03-31T23:09:52.514Z,8.28
2023-03-31T23:12:28.325Z,8.26
2023-03-31T23:14:58.900Z,8.29
2023-03-31T23:17:29.371Z,8.24
2023-03-31T23:19:59.987Z,8.24
2023-03-31T23:22:30.725Z,8.25
2023-03-31T23:25:01.858Z,8.22
2023-03-31T23:27:35.257Z,8.19
2023-03-31T23:30:06.241Z,8.19
2023-03-31T23:32:36.991Z,8.18
2023-03-31T23:35:08.487Z,8.18
2023-03-31T23:37:39.019Z,8.17
2023-03-31T23:40:14.454Z,8.11
2023-03-31T23:42:47.477Z,8.12
2023-03-31T23:45:18.721Z,8.11
2023-03-31T23:47:49.102Z,8.09
2023-03-31T23:50:20.079Z,8.04
2023-03-31T23:52:50.767Z,8.04
2023-03-31T23:55:21.360Z,8.08
2023-03-31T23:57:54.526Z,8.06
